sensor_id;sensor_type;location;lat;lon;timestamp;temperature;humidity
46720;DHT22;32452;51.382;-0.002;2023-05-07T00:01:33;14.20;99.90
46720;DHT22;32452;51.382;-0.002;2023-05-07T00:04:18;14.20;99.90
46720;DHT22;32452;51.382;-0.002;2023-05-07T00:07:05;14.20;99.90
46720;DHT22;32452;51.382;-0.002;2023-05-07T00:09:50;14.10;99.90
46720;DHT22;32452;51.382;-0.002;2023-05-07T00:12:36;14.10;99.90
46720;DHT22;32452;51.382;-0.002;2023-05-07T00:15:21;14.10;99.90
46720;DHT22;32452;51.382;-0.002;2023-05-07T00:18:07;14.00;99.90
46720;DHT22;32452;51.382;-0.002;2023-05-07T00:20:52;14.00;99.90
46720;DHT22;32452;51.382;-0.002;2023-05-07T00:23:38;14.00;99.90
46720;DHT22;32452;51.382;-0.002;2023-05-07T00:26:24;14.00;99.90
46720;DHT22;32452;51.382;-0.002;2023-05-07T00:29:09;13.90;99.90
46720;DHT22;32452;51.382;-0.002;2023-05-07T00:31:55;14.00;99.90
46720;DHT22;32452;51.382;-0.002;2023-05-07T00:34:41;13.90;99.90
46720;DHT22;32452;51.382;-0.002;2023-05-07T00:37:26;13.90;99.90
46720;DHT22;32452;51.382;-0.002;2023-05-07T00:40:12;13.90;99.90
46720;DHT22;32452;51.382;-0.002;2023-05-07T00:42:57;14.00;99.90
46720;DHT22;32452;51.382;-0.002;2023-05-07T00:45:45;14.00;99.90
46720;DHT22;32452;51.382;-0.002;2023-05-07T00:48:31;14.00;99.90
46720;DHT22;32452;51.382;-0.002;2023-05-07T00:51:17;14.00;99.90
46720;DHT22;32452;51.382;-0.002;2023-05-07T00:54:03;14.00;99.90
46720;DHT22;32452;51.382;-0.002;2023-05-07T00:56:48;14.00;99.90
46720;DHT22;32452;51.382;-0.002;2023-05-07T00:59:35;14.00;99.90
46720;DHT22;32452;51.382;-0.002;2023-05-07T01:02:20;14.00;99.90
46720;DHT22;32452;51.382;-0.002;2023-05-07T01:05:09;14.00;99.90
46720;DHT22;32452;51.382;-0.002;2023-05-07T01:07:55;13.90;99.90
46720;DHT22;32452;51.382;-0.002;2023-05-07T01:10:42;13.90;99.90
46720;DHT22;32452;51.382;-0.002;2023-05-07T01:13:29;13.90;99.90
46720;DHT22;32452;51.382;-0.002;2023-05-07T01:16:14;13.90;99.90
46720;DHT22;32452;51.382;-0.002;2023-05-07T01:19:00;13.90;99.90
46720;DHT22;32452;51.382;-0.002;2023-05-07T01:21:47;13.90;99.90
46720;DHT22;32452;51.382;-0.002;2023-05-07T01:24:35;13.90;99.90
46720;DHT22;32452;51.382;-0.002;2023-05-07T01:27:21;13.90;99.90
46720;DHT22;32452;51.382;-0.002;2023-05-07T01:30:07;13.90;99.90
46720;DHT22;32452;51.382;-0.002;2023-05-07T01:32:58;13.90;99.90
46720;DHT22;32452;51.382;-0.002;2023-05-07T01:35:48;13.90;99.90
46720;DHT22;32452;51.382;-0.002;2023-05-07T01:38:36;13.80;99.90
46720;DHT22;32452;51.382;-0.002;2023-05-07T01:41:23;13.90;99.90
46720;DHT22;32452;51.382;-0.002;2023-05-07T01:44:08;13.80;99.90
46720;DHT22;32452;51.382;-0.002;2023-05-07T01:46:56;13.80;99.90
46720;DHT22;32452;51.382;-0.002;2023-05-07T01:49:42;13.80;99.90
46720;DHT22;32452;51.382;-0.002;2023-05-07T01:52:28;13.80;99.90
46720;DHT22;32452;51.382;-0.002;2023-05-07T01:55:14;13.70;99.90
46720;DHT22;32452;51.382;-0.002;2023-05-07T01:57:59;13.70;99.90
46720;DHT22;32452;51.382;-0.002;2023-05-07T02:00:45;13.70;99.90
46720;DHT22;32452;51.382;-0.002;2023-05-07T02:03:31;13.60;99.90
46720;DHT22;32452;51.382;-0.002;2023-05-07T02:06:17;13.60;99.90
46720;DHT22;32452;51.382;-0.002;2023-05-07T02:09:02;13.60;99.90
46720;DHT22;32452;51.382;-0.002;2023-05-07T02:11:48;13.50;99.90
46720;DHT22;32452;51.382;-0.002;2023-05-07T02:14:34;13.50;99.90
46720;DHT22;32452;51.382;-0.002;2023-05-07T02:17:19;13.40;99.90
46720;DHT22;32452;51.382;-0.002;2023-05-07T02:20:05;13.30;99.90
46720;DHT22;32452;51.382;-0.002;2023-05-07T02:22:52;13.20;99.90
46720;DHT22;32452;51.382;-0.002;2023-05-07T02:25:38;13.20;99.90
46720;DHT22;32452;51.382;-0.002;2023-05-07T02:28:23;13.20;99.90
46720;DHT22;32452;51.382;-0.002;2023-05-07T02:31:09;13.20;99.90
46720;DHT22;32452;51.382;-0.002;2023-05-07T02:33:54;13.20;99.90
46720;DHT22;32452;51.382;-0.002;2023-05-07T02:36:40;13.20;99.90
46720;DHT22;32452;51.382;-0.002;2023-05-07T02:39:25;13.30;99.90
46720;DHT22;32452;51.382;-0.002;2023-05-07T02:42:11;13.30;99.90
46720;DHT22;32452;51.382;-0.002;2023-05-07T02:44:56;13.30;99.90
46720;DHT22;32452;51.382;-0.002;2023-05-07T02:47:42;13.30;99.90
46720;DHT22;32452;51.382;-0.002;2023-05-07T02:50:28;13.30;99.90
46720;DHT22;32452;51.382;-0.002;2023-05-07T02:53:13;13.40;99.90
46720;DHT22;32452;51.382;-0.002;2023-05-07T02:56:00;13.30;99.90
46720;DHT22;32452;51.382;-0.002;2023-05-07T02:58:46;13.40;99.90
46720;DHT22;32452;51.382;-0.002;2023-05-07T03:01:32;13.40;99.90
46720;DHT22;32452;51.382;-0.002;2023-05-07T03:04:17;13.40;99.90
46720;DHT22;32452;51.382;-0.002;2023-05-07T03:07:03;13.40;99.90
46720;DHT22;32452;51.382;-0.002;2023-05-07T03:09:48;13.40;99.90
46720;DHT22;32452;51.382;-0.002;2023-05-07T03:12:34;13.40;99.90
46720;DHT22;32452;51.382;-0.002;2023-05-07T03:15:20;13.40;99.90
46720;DHT22;32452;51.382;-0.002;2023-05-07T03:18:05;13.40;99.90
46720;DHT22;32452;51.382;-0.002;2023-05-07T03:20:51;13.40;99.90
46720;DHT22;32452;51.382;-0.002;2023-05-07T03:23:37;13.40;99.90
46720;DHT22;32452;51.382;-0.002;2023-05-07T03:26:22;13.40;99.90
46720;DHT22;32452;51.382;-0.002;2023-05-07T03:29:08;13.40;99.90
46720;DHT22;32452;51.382;-0.002;2023-05-07T03:31:53;13.40;99.90
46720;DHT22;32452;51.382;-0.002;2023-05-07T03:34:39;13.40;99.90
46720;DHT22;32452;51.382;-0.002;2023-05-07T03:37:24;13.40;99.90
46720;DHT22;32452;51.382;-0.002;2023-05-07T03:40:10;13.40;99.90
46720;DHT22;32452;51.382;-0.002;2023-05-07T03:42:59;13.40;99.90
46720;DHT22;32452;51.382;-0.002;2023-05-07T03:45:45;13.40;99.90
46720;DHT22;32452;51.382;-0.002;2023-05-07T03:48:30;13.40;99.90
46720;DHT22;32452;51.382;-0.002;2023-05-07T03:51:16;13.40;99.90
46720;DHT22;32452;51.382;-0.002;2023-05-07T03:54:02;13.30;99.90
46720;DHT22;32452;51.382;-0.002;2023-05-07T03:56:48;13.40;99.90
46720;DHT22;32452;51.382;-0.002;2023-05-07T03:59:33;13.40;99.90
46720;DHT22;32452;51.382;-0.002;2023-05-07T04:02:18;13.40;99.90
46720;DHT22;32452;51.382;-0.002;2023-05-07T04:05:04;13.40;99.90
46720;DHT22;32452;51.382;-0.002;2023-05-07T04:07:50;13.40;99.90
46720;DHT22;32452;51.382;-0.002;2023-05-07T04:10:35;13.40;99.90
46720;DHT22;32452;51.382;-0.002;2023-05-07T04:13:21;13.30;99.90
46720;DHT22;32452;51.382;-0.002;2023-05-07T04:16:08;13.30;99.90
46720;DHT22;32452;51.382;-0.002;2023-05-07T04:18:53;13.30;99.90
46720;DHT22;32452;51.382;-0.002;2023-05-07T04:21:39;13.30;99.90
46720;DHT22;32452;51.382;-0.002;2023-05-07T04:24:25;13.30;99.90
46720;DHT22;32452;51.382;-0.002;2023-05-07T04:27:11;13.30;99.90
46720;DHT22;32452;51.382;-0.002;2023-05-07T04:29:57;13.30;99.90
46720;DHT22;32452;51.382;-0.002;2023-05-07T04:32:42;13.30;99.90
46720;DHT22;32452;51.382;-0.002;2023-05-07T04:35:30;13.30;99.90
46720;DHT22;32452;51.382;-0.002;2023-05-07T04:38:16;13.30;99.90
46720;DHT22;32452;51.382;-0.002;2023-05-07T04:41:04;13.30;99.90
46720;DHT22;32452;51.382;-0.002;2023-05-07T04:43:50;13.30;99.90
46720;DHT22;32452;51.382;-0.002;2023-05-07T04:46:37;13.30;99.90
46720;DHT22;32452;51.382;-0.002;2023-05-07T04:49:22;13.30;99.90
46720;DHT22;32452;51.382;-0.002;2023-05-07T04:52:08;13.30;99.90
46720;DHT22;32452;51.382;-0.002;2023-05-07T04:54:53;13.30;99.90
46720;DHT22;32452;51.382;-0.002;2023-05-07T04:57:39;13.30;99.90
46720;DHT22;32452;51.382;-0.002;2023-05-07T05:00:25;13.30;99.90
46720;DHT22;32452;51.382;-0.002;2023-05-07T05:03:11;13.30;99.90
46720;DHT22;32452;51.382;-0.002;2023-05-07T05:05:57;13.30;99.90
46720;DHT22;32452;51.382;-0.002;2023-05-07T05:08:44;13.30;99.90
46720;DHT22;32452;51.382;-0.002;2023-05-07T05:11:31;13.30;99.90
46720;DHT22;32452;51.382;-0.002;2023-05-07T05:14:17;13.30;99.90
46720;DHT22;32452;51.382;-0.002;2023-05-07T05:17:02;13.20;99.90
46720;DHT22;32452;51.382;-0.002;2023-05-07T05:19:48;13.30;99.90
46720;DHT22;32452;51.382;-0.002;2023-05-07T05:22:34;13.30;99.90
46720;DHT22;32452;51.382;-0.002;2023-05-07T05:25:20;13.30;99.90
46720;DHT22;32452;51.382;-0.002;2023-05-07T05:28:05;13.30;99.90
46720;DHT22;32452;51.382;-0.002;2023-05-07T05:30:51;13.30;99.90
46720;DHT22;32452;51.382;-0.002;2023-05-07T05:33:37;13.30;99.90
46720;DHT22;32452;51.382;-0.002;2023-05-07T05:36:22;13.40;99.90
46720;DHT22;32452;51.382;-0.002;2023-05-07T05:39:08;13.40;99.90
46720;DHT22;32452;51.382;-0.002;2023-05-07T05:41:54;13.40;99.90
46720;DHT22;32452;51.382;-0.002;2023-05-07T05:44:40;13.40;99.90
46720;DHT22;32452;51.382;-0.002;2023-05-07T05:47:25;13.40;99.90
46720;DHT22;32452;51.382;-0.002;2023-05-07T05:50:11;13.40;99.90
46720;DHT22;32452;51.382;-0.002;2023-05-07T05:52:57;13.40;99.90
46720;DHT22;32452;51.382;-0.002;2023-05-07T05:55:45;13.50;99.90
46720;DHT22;32452;51.382;-0.002;2023-05-07T05:58:30;13.50;99.90
46720;DHT22;32452;51.382;-0.002;2023-05-07T06:01:17;13.50;99.90
46720;DHT22;32452;51.382;-0.002;2023-05-07T06:04:03;13.50;99.90
46720;DHT22;32452;51.382;-0.002;2023-05-07T06:06:49;13.50;99.90
46720;DHT22;32452;51.382;-0.002;2023-05-07T06:09:34;13.50;99.90
46720;DHT22;32452;51.382;-0.002;2023-05-07T06:12:20;13.50;99.90
46720;DHT22;32452;51.382;-0.002;2023-05-07T06:15:06;13.50;99.90
46720;DHT22;32452;51.382;-0.002;2023-05-07T06:17:52;13.50;99.90
46720;DHT22;32452;51.382;-0.002;2023-05-07T06:20:38;13.60;99.90
46720;DHT22;32452;51.382;-0.002;2023-05-07T06:23:23;13.60;99.90
46720;DHT22;32452;51.382;-0.002;2023-05-07T06:26:09;13.60;99.90
46720;DHT22;32452;51.382;-0.002;2023-05-07T06:28:55;13.60;99.90
46720;DHT22;32452;51.382;-0.002;2023-05-07T06:31:41;13.60;99.90
46720;DHT22;32452;51.382;-0.002;2023-05-07T06:34:26;13.70;99.90
46720;DHT22;32452;51.382;-0.002;2023-05-07T06:37:12;13.70;99.90
46720;DHT22;32452;51.382;-0.002;2023-05-07T06:39:57;13.70;99.90
46720;DHT22;32452;51.382;-0.002;2023-05-07T06:42:44;13.70;99.90
46720;DHT22;32452;51.382;-0.002;2023-05-07T06:45:30;13.70;99.90
46720;DHT22;32452;51.382;-0.002;2023-05-07T06:48:15;13.70;99.90
46720;DHT22;32452;51.382;-0.002;2023-05-07T06:51:01;13.70;99.90
46720;DHT22;32452;51.382;-0.002;2023-05-07T06:53:46;13.80;99.90
46720;DHT22;32452;51.382;-0.002;2023-05-07T06:56:33;13.80;99.90
46720;DHT22;32452;51.382;-0.002;2023-05-07T06:59:19;13.80;99.90
46720;DHT22;32452;51.382;-0.002;2023-05-07T07:02:05;13.80;99.90
46720;DHT22;32452;51.382;-0.002;2023-05-07T07:04:51;13.80;99.90
46720;DHT22;32452;51.382;-0.002;2023-05-07T07:07:36;13.80;99.90
46720;DHT22;32452;51.382;-0.002;2023-05-07T07:10:23;13.90;99.90
46720;DHT22;32452;51.382;-0.002;2023-05-07T07:13:08;13.90;99.90
46720;DHT22;32452;51.382;-0.002;2023-05-07T07:15:53;13.90;99.90
46720;DHT22;32452;51.382;-0.002;2023-05-07T07:18:39;13.90;99.90
46720;DHT22;32452;51.382;-0.002;2023-05-07T07:21:25;13.90;99.90
46720;DHT22;32452;51.382;-0.002;2023-05-07T07:24:11;14.00;99.90
46720;DHT22;32452;51.382;-0.002;2023-05-07T07:26:56;14.00;99.90
46720;DHT22;32452;51.382;-0.002;2023-05-07T07:29:42;14.00;99.90
46720;DHT22;32452;51.382;-0.002;2023-05-07T07:32:27;14.00;99.90
46720;DHT22;32452;51.382;-0.002;2023-05-07T07:35:13;14.00;99.90
46720;DHT22;32452;51.382;-0.002;2023-05-07T07:37:58;14.00;99.90
46720;DHT22;32452;51.382;-0.002;2023-05-07T07:40:44;14.00;99.90
46720;DHT22;32452;51.382;-0.002;2023-05-07T07:43:29;14.10;99.90
46720;DHT22;32452;51.382;-0.002;2023-05-07T07:46:15;14.10;99.90
46720;DHT22;32452;51.382;-0.002;2023-05-07T07:49:00;14.10;99.90
46720;DHT22;32452;51.382;-0.002;2023-05-07T07:51:46;14.20;99.90
46720;DHT22;32452;51.382;-0.002;2023-05-07T07:54:31;14.20;99.90
46720;DHT22;32452;51.382;-0.002;2023-05-07T07:57:17;14.20;99.90
46720;DHT22;32452;51.382;-0.002;2023-05-07T08:00:03;14.20;99.90
46720;DHT22;32452;51.382;-0.002;2023-05-07T08:02:49;14.20;99.90
46720;DHT22;32452;51.382;-0.002;2023-05-07T08:05:35;14.20;99.90
46720;DHT22;32452;51.382;-0.002;2023-05-07T08:08:21;14.30;99.90
46720;DHT22;32452;51.382;-0.002;2023-05-07T08:11:07;14.30;99.90
46720;DHT22;32452;51.382;-0.002;2023-05-07T08:13:54;14.40;99.90
46720;DHT22;32452;51.382;-0.002;2023-05-07T08:16:40;14.50;99.90
46720;DHT22;32452;51.382;-0.002;2023-05-07T08:19:25;14.60;99.90
46720;DHT22;32452;51.382;-0.002;2023-05-07T08:22:11;14.60;99.90
46720;DHT22;32452;51.382;-0.002;2023-05-07T08:24:57;14.60;99.90
46720;DHT22;32452;51.382;-0.002;2023-05-07T08:27:42;14.70;99.90
46720;DHT22;32452;51.382;-0.002;2023-05-07T08:30:29;14.70;99.90
46720;DHT22;32452;51.382;-0.002;2023-05-07T08:33:15;14.80;99.90
46720;DHT22;32452;51.382;-0.002;2023-05-07T08:36:01;14.90;99.90
46720;DHT22;32452;51.382;-0.002;2023-05-07T08:38:46;14.90;99.90
46720;DHT22;32452;51.382;-0.002;2023-05-07T08:41:32;14.90;99.90
46720;DHT22;32452;51.382;-0.002;2023-05-07T08:44:22;15.00;99.90
46720;DHT22;32452;51.382;-0.002;2023-05-07T08:47:08;15.00;99.90
46720;DHT22;32452;51.382;-0.002;2023-05-07T08:49:55;15.10;99.90
46720;DHT22;32452;51.382;-0.002;2023-05-07T08:52:41;15.20;99.90
46720;DHT22;32452;51.382;-0.002;2023-05-07T08:55:28;15.30;99.90
46720;DHT22;32452;51.382;-0.002;2023-05-07T08:58:14;15.40;99.90
46720;DHT22;32452;51.382;-0.002;2023-05-07T09:01:03;15.50;99.90
46720;DHT22;32452;51.382;-0.002;2023-05-07T09:03:52;15.60;99.90
46720;DHT22;32452;51.382;-0.002;2023-05-07T09:06:38;15.70;99.90
46720;DHT22;32452;51.382;-0.002;2023-05-07T09:09:26;15.80;99.90
46720;DHT22;32452;51.382;-0.002;2023-05-07T09:12:12;15.90;99.90
46720;DHT22;32452;51.382;-0.002;2023-05-07T09:14:59;16.20;99.90
46720;DHT22;32452;51.382;-0.002;2023-05-07T09:17:45;16.50;99.90
46720;DHT22;32452;51.382;-0.002;2023-05-07T09:20:31;16.90;99.90
46720;DHT22;32452;51.382;-0.002;2023-05-07T09:23:17;17.50;99.90
46720;DHT22;32452;51.382;-0.002;2023-05-07T09:26:04;18.20;99.90
46720;DHT22;32452;51.382;-0.002;2023-05-07T09:28:53;18.80;99.90
46720;DHT22;32452;51.382;-0.002;2023-05-07T09:31:39;19.30;99.90
46720;DHT22;32452;51.382;-0.002;2023-05-07T09:34:25;19.60;99.50
46720;DHT22;32452;51.382;-0.002;2023-05-07T09:37:12;19.60;97.40
46720;DHT22;32452;51.382;-0.002;2023-05-07T09:39:58;19.50;96.70
46720;DHT22;32452;51.382;-0.002;2023-05-07T09:42:43;19.30;97.10
46720;DHT22;32452;51.382;-0.002;2023-05-07T09:45:29;19.10;97.50
46720;DHT22;32452;51.382;-0.002;2023-05-07T09:48:15;19.00;97.10
46720;DHT22;32452;51.382;-0.002;2023-05-07T09:51:03;18.70;97.20
46720;DHT22;32452;51.382;-0.002;2023-05-07T09:53:52;18.50;97.40
46720;DHT22;32452;51.382;-0.002;2023-05-07T09:56:39;18.30;97.50
46720;DHT22;32452;51.382;-0.002;2023-05-07T09:59:27;18.30;98.00
46720;DHT22;32452;51.382;-0.002;2023-05-07T10:02:15;18.20;98.10
46720;DHT22;32452;51.382;-0.002;2023-05-07T10:05:02;18.20;98.10
46720;DHT22;32452;51.382;-0.002;2023-05-07T10:07:49;18.20;98.10
46720;DHT22;32452;51.382;-0.002;2023-05-07T10:10:35;18.20;97.90
46720;DHT22;32452;51.382;-0.002;2023-05-07T10:13:21;18.20;97.80
46720;DHT22;32452;51.382;-0.002;2023-05-07T10:16:07;18.20;97.60
46720;DHT22;32452;51.382;-0.002;2023-05-07T10:18:54;18.20;97.40
46720;DHT22;32452;51.382;-0.002;2023-05-07T10:21:44;18.20;97.30
46720;DHT22;32452;51.382;-0.002;2023-05-07T10:24:33;18.30;97.10
46720;DHT22;32452;51.382;-0.002;2023-05-07T10:27:19;18.20;97.30
46720;DHT22;32452;51.382;-0.002;2023-05-07T10:30:10;18.30;97.20
46720;DHT22;32452;51.382;-0.002;2023-05-07T10:33:00;18.20;96.80
46720;DHT22;32452;51.382;-0.002;2023-05-07T10:35:51;18.20;96.80
46720;DHT22;32452;51.382;-0.002;2023-05-07T10:38:40;18.20;96.70
46720;DHT22;32452;51.382;-0.002;2023-05-07T10:41:26;18.20;96.40
46720;DHT22;32452;51.382;-0.002;2023-05-07T10:44:27;18.20;96.30
46720;DHT22;32452;51.382;-0.002;2023-05-07T10:47:15;18.20;96.70
46720;DHT22;32452;51.382;-0.002;2023-05-07T11:02:09;18.10;96.50
46720;DHT22;32452;51.382;-0.002;2023-05-07T11:05:19;18.20;96.60
46720;DHT22;32452;51.382;-0.002;2023-05-07T11:08:05;18.20;96.30
46720;DHT22;32452;51.382;-0.002;2023-05-07T11:10:52;18.20;96.40
46720;DHT22;32452;51.382;-0.002;2023-05-07T11:13:48;18.20;96.20
46720;DHT22;32452;51.382;-0.002;2023-05-07T11:16:34;18.20;96.00
46720;DHT22;32452;51.382;-0.002;2023-05-07T11:25:21;18.20;96.50
46720;DHT22;32452;51.382;-0.002;2023-05-07T11:28:08;18.30;96.40
46720;DHT22;32452;51.382;-0.002;2023-05-07T11:30:57;18.30;96.50
46720;DHT22;32452;51.382;-0.002;2023-05-07T11:33:43;18.40;96.50
46720;DHT22;32452;51.382;-0.002;2023-05-07T11:36:31;18.40;95.90
46720;DHT22;32452;51.382;-0.002;2023-05-07T11:39:32;18.50;95.90
46720;DHT22;32452;51.382;-0.002;2023-05-07T11:42:32;18.50;95.80
46720;DHT22;32452;51.382;-0.002;2023-05-07T11:45:24;18.50;95.40
46720;DHT22;32452;51.382;-0.002;2023-05-07T11:48:10;18.50;95.50
46720;DHT22;32452;51.382;-0.002;2023-05-07T11:51:05;18.50;95.30
46720;DHT22;32452;51.382;-0.002;2023-05-07T11:53:51;18.60;95.10
46720;DHT22;32452;51.382;-0.002;2023-05-07T11:56:37;18.60;95.00
46720;DHT22;32452;51.382;-0.002;2023-05-07T11:59:24;18.60;94.80
46720;DHT22;32452;51.382;-0.002;2023-05-07T12:02:10;18.60;94.40
46720;DHT22;32452;51.382;-0.002;2023-05-07T12:04:56;18.60;94.30
46720;DHT22;32452;51.382;-0.002;2023-05-07T12:07:41;18.70;94.40
46720;DHT22;32452;51.382;-0.002;2023-05-07T12:10:27;18.80;94.40
46720;DHT22;32452;51.382;-0.002;2023-05-07T12:13:20;18.80;94.20
46720;DHT22;32452;51.382;-0.002;2023-05-07T12:16:09;18.90;93.60
46720;DHT22;32452;51.382;-0.002;2023-05-07T12:18:55;19.00;93.50
46720;DHT22;32452;51.382;-0.002;2023-05-07T12:21:44;18.90;93.50
46720;DHT22;32452;51.382;-0.002;2023-05-07T12:24:45;18.90;93.30
46720;DHT22;32452;51.382;-0.002;2023-05-07T12:27:31;19.00;93.30
46720;DHT22;32452;51.382;-0.002;2023-05-07T12:30:17;19.00;93.30
46720;DHT22;32452;51.382;-0.002;2023-05-07T12:33:04;19.00;93.30
46720;DHT22;32452;51.382;-0.002;2023-05-07T12:35:49;19.20;93.60
46720;DHT22;32452;51.382;-0.002;2023-05-07T12:38:36;19.30;93.20
46720;DHT22;32452;51.382;-0.002;2023-05-07T12:41:22;19.40;93.00
46720;DHT22;32452;51.382;-0.002;2023-05-07T12:44:12;19.60;93.10
46720;DHT22;32452;51.382;-0.002;2023-05-07T12:47:03;19.80;92.70
46720;DHT22;32452;51.382;-0.002;2023-05-07T12:49:50;20.10;92.10
46720;DHT22;32452;51.382;-0.002;2023-05-07T12:52:59;20.30;91.50
46720;DHT22;32452;51.382;-0.002;2023-05-07T12:56:00;20.50;91.20
46720;DHT22;32452;51.382;-0.002;2023-05-07T12:58:48;20.60;90.80
46720;DHT22;32452;51.382;-0.002;2023-05-07T13:01:34;20.80;89.70
46720;DHT22;32452;51.382;-0.002;2023-05-07T13:04:20;21.00;87.00
46720;DHT22;32452;51.382;-0.002;2023-05-07T13:07:06;21.10;85.50
46720;DHT22;32452;51.382;-0.002;2023-05-07T13:09:52;21.20;83.70
46720;DHT22;32452;51.382;-0.002;2023-05-07T13:12:37;21.40;81.00
46720;DHT22;32452;51.382;-0.002;2023-05-07T13:15:23;21.60;79.10
46720;DHT22;32452;51.382;-0.002;2023-05-07T13:18:08;21.60;78.40
46720;DHT22;32452;51.382;-0.002;2023-05-07T13:20:57;21.60;77.40
46720;DHT22;32452;51.382;-0.002;2023-05-07T13:23:43;21.60;77.30
46720;DHT22;32452;51.382;-0.002;2023-05-07T13:26:30;21.70;77.20
46720;DHT22;32452;51.382;-0.002;2023-05-07T13:29:16;21.80;76.30
46720;DHT22;32452;51.382;-0.002;2023-05-07T13:32:02;21.70;74.90
46720;DHT22;32452;51.382;-0.002;2023-05-07T13:34:48;21.60;75.00
46720;DHT22;32452;51.382;-0.002;2023-05-07T13:37:34;21.50;74.80
46720;DHT22;32452;51.382;-0.002;2023-05-07T13:40:20;21.50;74.50
46720;DHT22;32452;51.382;-0.002;2023-05-07T13:43:06;21.60;74.40
46720;DHT22;32452;51.382;-0.002;2023-05-07T13:45:51;21.70;74.00
46720;DHT22;32452;51.382;-0.002;2023-05-07T13:48:37;21.80;73.60
46720;DHT22;32452;51.382;-0.002;2023-05-07T13:51:23;21.90;73.20
46720;DHT22;32452;51.382;-0.002;2023-05-07T13:54:08;21.90;72.30
46720;DHT22;32452;51.382;-0.002;2023-05-07T13:56:54;21.90;71.70
46720;DHT22;32452;51.382;-0.002;2023-05-07T13:59:41;22.00;71.60
46720;DHT22;32452;51.382;-0.002;2023-05-07T14:02:26;22.10;70.90
46720;DHT22;32452;51.382;-0.002;2023-05-07T14:05:12;22.10;70.90
46720;DHT22;32452;51.382;-0.002;2023-05-07T14:07:58;22.20;69.90
46720;DHT22;32452;51.382;-0.002;2023-05-07T14:10:44;22.20;69.00
46720;DHT22;32452;51.382;-0.002;2023-05-07T14:13:30;22.20;68.50
46720;DHT22;32452;51.382;-0.002;2023-05-07T14:16:16;22.10;68.30
46720;DHT22;32452;51.382;-0.002;2023-05-07T14:19:02;22.00;67.50
46720;DHT22;32452;51.382;-0.002;2023-05-07T14:21:47;21.90;67.80
46720;DHT22;32452;51.382;-0.002;2023-05-07T14:24:33;21.80;68.20
46720;DHT22;32452;51.382;-0.002;2023-05-07T14:27:23;21.80;68.20
46720;DHT22;32452;51.382;-0.002;2023-05-07T14:30:09;21.80;67.80
46720;DHT22;32452;51.382;-0.002;2023-05-07T14:32:54;21.70;68.20
46720;DHT22;32452;51.382;-0.002;2023-05-07T14:35:43;21.70;67.70
46720;DHT22;32452;51.382;-0.002;2023-05-07T14:38:34;21.60;67.50
46720;DHT22;32452;51.382;-0.002;2023-05-07T14:41:21;21.60;68.30
46720;DHT22;32452;51.382;-0.002;2023-05-07T14:44:07;21.50;67.50
46720;DHT22;32452;51.382;-0.002;2023-05-07T14:46:55;21.50;67.80
46720;DHT22;32452;51.382;-0.002;2023-05-07T14:49:42;21.50;67.80
46720;DHT22;32452;51.382;-0.002;2023-05-07T14:52:33;21.40;67.40
46720;DHT22;32452;51.382;-0.002;2023-05-07T14:55:22;21.40;67.50
46720;DHT22;32452;51.382;-0.002;2023-05-07T14:58:08;21.40;67.60
46720;DHT22;32452;51.382;-0.002;2023-05-07T15:00:53;21.40;68.10
46720;DHT22;32452;51.382;-0.002;2023-05-07T15:03:39;21.30;69.00
46720;DHT22;32452;51.382;-0.002;2023-05-07T15:06:25;21.30;68.00
46720;DHT22;32452;51.382;-0.002;2023-05-07T15:09:12;21.20;68.10
46720;DHT22;32452;51.382;-0.002;2023-05-07T15:11:57;21.10;68.00
46720;DHT22;32452;51.382;-0.002;2023-05-07T15:14:44;21.10;67.90
46720;DHT22;32452;51.382;-0.002;2023-05-07T15:17:29;21.00;68.00
46720;DHT22;32452;51.382;-0.002;2023-05-07T15:20:15;20.90;67.70
46720;DHT22;32452;51.382;-0.002;2023-05-07T15:23:00;21.00;67.70
46720;DHT22;32452;51.382;-0.002;2023-05-07T15:25:46;21.00;67.40
46720;DHT22;32452;51.382;-0.002;2023-05-07T15:28:36;20.90;66.80
46720;DHT22;32452;51.382;-0.002;2023-05-07T15:31:24;20.90;66.20
46720;DHT22;32452;51.382;-0.002;2023-05-07T15:34:10;20.80;65.70
46720;DHT22;32452;51.382;-0.002;2023-05-07T15:36:56;20.70;65.90
46720;DHT22;32452;51.382;-0.002;2023-05-07T15:39:42;20.60;66.10
46720;DHT22;32452;51.382;-0.002;2023-05-07T15:42:27;20.50;66.10
46720;DHT22;32452;51.382;-0.002;2023-05-07T15:45:13;20.50;66.40
46720;DHT22;32452;51.382;-0.002;2023-05-07T15:47:59;20.30;66.50
46720;DHT22;32452;51.382;-0.002;2023-05-07T15:50:45;20.30;66.50
46720;DHT22;32452;51.382;-0.002;2023-05-07T15:53:31;20.30;66.30
46720;DHT22;32452;51.382;-0.002;2023-05-07T15:56:16;20.30;66.60
46720;DHT22;32452;51.382;-0.002;2023-05-07T15:59:02;20.30;66.80
46720;DHT22;32452;51.382;-0.002;2023-05-07T16:01:48;20.30;68.00
46720;DHT22;32452;51.382;-0.002;2023-05-07T16:04:34;20.30;66.70
46720;DHT22;32452;51.382;-0.002;2023-05-07T16:07:20;20.30;66.30
46720;DHT22;32452;51.382;-0.002;2023-05-07T16:10:07;20.20;66.70
46720;DHT22;32452;51.382;-0.002;2023-05-07T16:12:54;20.20;66.80
46720;DHT22;32452;51.382;-0.002;2023-05-07T16:15:39;20.20;66.70
46720;DHT22;32452;51.382;-0.002;2023-05-07T16:18:25;20.20;67.50
46720;DHT22;32452;51.382;-0.002;2023-05-07T16:21:11;20.20;66.30
46720;DHT22;32452;51.382;-0.002;2023-05-07T16:23:56;20.20;66.30
46720;DHT22;32452;51.382;-0.002;2023-05-07T16:26:42;20.20;66.50
46720;DHT22;32452;51.382;-0.002;2023-05-07T16:29:28;20.20;66.30
46720;DHT22;32452;51.382;-0.002;2023-05-07T16:32:13;20.20;66.30
46720;DHT22;32452;51.382;-0.002;2023-05-07T16:34:59;20.20;66.50
46720;DHT22;32452;51.382;-0.002;2023-05-07T16:37:45;20.20;66.60
46720;DHT22;32452;51.382;-0.002;2023-05-07T16:40:31;20.10;66.30
46720;DHT22;32452;51.382;-0.002;2023-05-07T16:43:17;20.10;66.20
46720;DHT22;32452;51.382;-0.002;2023-05-07T16:46:03;20.00;66.30
46720;DHT22;32452;51.382;-0.002;2023-05-07T16:48:49;20.00;66.50
46720;DHT22;32452;51.382;-0.002;2023-05-07T16:51:34;20.00;66.30
46720;DHT22;32452;51.382;-0.002;2023-05-07T16:54:20;20.00;66.50
46720;DHT22;32452;51.382;-0.002;2023-05-07T16:57:05;20.00;66.40
46720;DHT22;32452;51.382;-0.002;2023-05-07T16:59:51;20.00;66.40
46720;DHT22;32452;51.382;-0.002;2023-05-07T17:02:37;20.00;66.20
46720;DHT22;32452;51.382;-0.002;2023-05-07T17:05:23;20.00;66.10
46720;DHT22;32452;51.382;-0.002;2023-05-07T17:08:10;20.00;65.90
46720;DHT22;32452;51.382;-0.002;2023-05-07T17:10:58;20.00;66.00
46720;DHT22;32452;51.382;-0.002;2023-05-07T17:13:43;20.00;66.10
46720;DHT22;32452;51.382;-0.002;2023-05-07T17:16:29;19.90;65.80
46720;DHT22;32452;51.382;-0.002;2023-05-07T17:19:14;19.90;66.00
46720;DHT22;32452;51.382;-0.002;2023-05-07T17:22:00;19.90;66.30
46720;DHT22;32452;51.382;-0.002;2023-05-07T17:24:46;19.80;66.50
46720;DHT22;32452;51.382;-0.002;2023-05-07T17:27:33;19.70;66.60
46720;DHT22;32452;51.382;-0.002;2023-05-07T17:30:22;19.70;66.60
46720;DHT22;32452;51.382;-0.002;2023-05-07T17:33:17;19.70;66.60